Time;durP1;ratioP1;P1;durP2;ratioP2;P2;SDS_P1;SDS_P2;PMS_P1;PMS_P2;Temp;Humidity;BMP_temperature;BMP_pressure;BME280_temperature;BME280_humidity;BME280_pressure;Samples;Min_cycle;Max_cycle;Signal;HPM_P1;HPM_P2
2021/01/06 10:53:04;;;;;;;1.58;0.60;;;21.40;29.90;22.70;93233.00;;;;10552657;27;45288;-73
2021/01/06 10:58:50;;;;;;;0.90;0.70;;;21.20;28.40;24.30;93237.00;;;;10494766;27;47142;-74
2021/01/06 11:04:14;;;;;;;0.80;0.60;;;21.50;27.10;24.90;93233.00;;;;10460502;28;45472;-74
2021/01/06 11:10:07;;;;;;;0.70;0.52;;;21.90;25.90;25.30;93233.00;;;;10508982;28;47317;-73
2021/01/06 11:15:24;;;;;;;1.55;0.65;;;22.10;25.00;25.40;93235.00;;;;10509909;28;45622;-74
2021/01/06 11:20:37;;;;;;;2.60;0.60;;;22.40;24.50;25.60;93223.00;;;;10508535;28;45418;-73
2021/01/06 11:25:53;;;;;;;1.48;0.60;;;22.50;24.20;25.60;93206.00;;;;10508456;28;45348;-73
2021/01/06 11:31:12;;;;;;;0.82;0.45;;;22.50;23.80;25.70;93200.00;;;;10508048;28;47702;-74
2021/01/06 11:36:37;;;;;;;1.00;0.60;;;22.60;23.40;25.80;93208.00;;;;10507733;28;47657;-73
2021/01/06 11:41:46;;;;;;;0.65;0.47;;;22.60;23.20;25.70;93210.00;;;;10507333;28;47331;-73
2021/01/06 11:47:31;;;;;;;0.52;0.50;;;22.60;23.00;25.90;93208.00;;;;10509293;28;46038;-73
2021/01/06 11:52:43;;;;;;;0.40;0.40;;;22.70;22.90;25.80;93204.00;;;;10508499;28;47296;-73
2021/01/06 11:58:14;;;;;;;0.60;0.60;;;22.70;22.80;25.80;93194.00;;;;10508562;28;45448;-73
2021/01/06 12:03:59;;;;;;;0.80;0.63;;;22.70;22.60;25.90;93196.00;;;;10483918;28;47010;-73
2021/01/06 12:09:36;;;;;;;0.98;0.70;;;22.70;22.50;25.80;93188.00;;;;10475196;28;57320;-73
2021/01/06 12:14:52;;;;;;;0.87;0.60;;;22.60;22.30;25.80;93194.00;;;;10481706;28;46196;-76
2021/01/06 12:20:08;;;;;;;1.63;0.70;;;22.70;22.60;25.80;93182.00;;;;10479632;28;54509;-76
2021/01/06 12:25:24;;;;;;;0.50;0.50;;;22.70;22.50;25.80;93198.00;;;;10478686;28;48398;-76
2021/01/06 12:30:36;;;;;;;1.30;0.60;;;22.60;22.40;25.70;93184.00;;;;10479055;28;51766;-76
2021/01/06 12:35:41;;;;;;;0.63;0.50;;;22.60;22.30;25.70;93196.00;;;;10478811;28;45454;-76
2021/01/06 12:41:06;;;;;;;0.60;0.50;;;22.60;22.30;25.80;93189.00;;;;10480290;28;48712;-76
2021/01/06 12:46:41;;;;;;;0.52;0.40;;;22.60;22.20;25.80;93197.00;;;;10479233;28;47306;-75
2021/01/06 12:52:07;;;;;;;0.40;0.40;;;22.70;22.30;25.80;93207.00;;;;10462244;28;57402;-76
2021/01/06 12:57:14;;;;;;;0.77;0.60;;;22.70;22.20;25.70;93207.00;;;;10478252;28;51821;-75
2021/01/06 13:02:25;;;;;;;0.75;0.50;;;22.70;22.20;25.70;93206.00;;;;10477527;28;47383;-75
2021/01/06 13:07:31;;;;;;;0.65;0.55;;;22.60;22.10;25.70;93221.00;;;;10476898;28;52571;-76
2021/01/06 13:12:46;;;;;;;0.47;0.47;;;22.70;22.10;25.80;93226.00;;;;10473206;28;46848;-75
2021/01/06 13:18:05;;;;;;;0.68;0.50;;;22.70;22.10;25.80;93222.00;;;;10475572;28;48097;-76
2021/01/06 13:23:41;;;;;;;0.98;0.52;;;22.70;22.00;25.90;93218.00;;;;10477161;28;51937;-75
2021/01/06 13:29:00;;;;;;;0.63;0.52;;;22.70;22.00;25.80;93215.00;;;;10432716;28;47108;-76
2021/01/06 13:34:33;;;;;;;0.70;0.70;;;22.80;22.00;25.80;93230.00;;;;10475803;28;59133;-75
2021/01/06 13:39:58;;;;;;;1.30;0.60;;;22.80;22.00;25.80;93219.00;;;;10474628;28;55948;-75
2021/01/06 13:45:36;;;;;;;0.82;0.75;;;22.70;21.90;25.90;93236.00;;;;10477501;28;45504;-75
2021/01/06 13:50:59;;;;;;;0.80;0.70;;;22.70;21.90;25.90;93238.00;;;;10465497;22;46478;-74
2021/01/06 13:56:24;;;;;;;1.08;0.90;;;22.80;21.90;25.90;93238.00;;;;10416883;28;47117;-74
2021/01/06 14:01:46;;;;;;;0.98;0.80;;;22.70;21.80;25.90;93244.00;;;;10468486;28;46456;-74
2021/01/06 14:06:58;;;;;;;0.68;0.57;;;22.70;21.80;25.80;93243.00;;;;10476403;28;47496;-74
2021/01/06 14:12:38;;;;;;;0.95;0.80;;;22.80;21.80;26.00;93245.00;;;;10475739;28;47585;-74
2021/01/06 14:18:01;;;;;;;0.50;0.50;;;22.80;21.70;25.90;93254.00;;;;10475800;28;53834;-74
2021/01/06 14:23:11;;;;;;;1.20;0.77;;;22.80;21.70;25.80;93255.00;;;;10475493;28;45483;-74
2021/01/06 14:28:43;;;;;;;0.63;0.57;;;22.80;21.70;25.80;93258.00;;;;10476462;28;48631;-74
2021/01/06 14:33:55;;;;;;;1.05;0.70;;;22.70;21.70;25.80;93263.00;;;;10476255;28;48022;-74
2021/01/06 14:39:00;;;;;;;1.00;0.90;;;22.80;21.70;25.80;93251.00;;;;10476136;28;55546;-74
2021/01/06 14:44:50;;;;;;;1.17;0.70;;;22.80;21.70;25.90;93272.00;;;;10476434;28;47032;-75
2021/01/06 14:50:14;;;;;;;1.50;0.80;;;22.70;21.60;25.80;93261.00;;;;10476712;28;45388;-76
2021/01/06 14:55:22;;;;;;;0.82;0.80;;;22.70;21.60;25.80;93264.00;;;;10457051;28;45356;-74
2021/01/06 15:00:35;;;;;;;1.20;0.80;;;22.70;21.60;25.80;93270.00;;;;10475537;28;48196;-76
2021/01/06 15:05:46;;;;;;;1.60;0.82;;;22.70;21.60;25.80;93280.00;;;;10475980;28;57343;-74
2021/01/06 15:11:30;;;;;;;1.92;1.13;;;22.70;21.60;26.00;93277.00;;;;10473820;28;48545;-75
2021/01/06 15:16:33;;;;;;;1.58;1.20;;;22.70;21.60;25.80;93285.00;;;;10456046;28;56394;-75
2021/01/06 15:21:39;;;;;;;1.33;0.98;;;22.80;21.60;25.90;93294.00;;;;10475219;28;45722;-74
2021/01/06 15:26:51;;;;;;;1.03;0.93;;;22.80;21.60;26.00;93292.00;;;;10476075;28;46689;-74
2021/01/06 15:32:28;;;;;;;1.20;1.10;;;22.80;21.60;26.00;93277.00;;;;10474704;28;46781;-74
2021/01/06 15:37:34;;;;;;;1.38;1.08;;;22.80;21.60;25.90;93283.00;;;;10465732;28;46697;-74
2021/01/06 15:42:35;;;;;;;1.33;1.20;;;22.80;21.50;25.90;93285.00;;;;10482165;28;46625;-75
2021/01/06 15:47:42;;;;;;;1.45;1.25;;;22.90;21.60;25.90;93289.00;;;;10480797;28;69471;-75
2021/01/06 15:52:42;;;;;;;1.45;1.30;;;22.80;21.50;25.90;93296.00;;;;10498859;28;45391;-75
2021/01/06 15:57:46;;;;;;;1.95;1.50;;;22.90;21.50;25.90;93293.00;;;;10481622;28;54486;-75
2021/01/06 16:02:52;;;;;;;2.28;1.75;;;22.90;21.50;25.90;93295.00;;;;10481435;28;46260;-75
2021/01/06 16:07:53;;;;;;;2.40;1.90;;;22.90;21.50;25.90;93295.00;;;;10481545;28;45364;-74
2021/01/06 16:12:55;;;;;;;2.47;1.73;;;22.90;21.50;25.90;93293.00;;;;10481343;28;45416;-75
2021/01/06 16:17:57;;;;;;;2.00;1.58;;;22.90;21.50;25.90;93298.00;;;;10480433;28;63223;-75
2021/01/06 16:22:59;;;;;;;1.85;1.58;;;22.80;21.40;25.90;93306.00;;;;10480731;28;47614;-74
2021/01/06 16:28:29;;;;;;;1.77;1.42;;;22.80;21.40;26.00;93308.00;;;;10480558;28;45346;-75
2021/01/06 16:33:32;;;;;;;1.70;1.52;;;22.80;21.40;25.90;93294.00;;;;10480152;28;47104;-75
2021/01/06 16:38:36;;;;;;;1.83;1.50;;;22.80;21.40;25.90;93319.00;;;;10480418;28;47202;-74
2021/01/06 16:43:37;;;;;;;1.73;1.48;;;22.80;21.40;25.90;93320.00;;;;10479727;28;47274;-74
2021/01/06 16:48:38;;;;;;;2.05;1.58;;;22.90;21.40;25.80;93310.00;;;;10478471;28;75368;-75
2021/01/06 16:53:39;;;;;;;1.70;1.52;;;22.80;21.40;25.80;93313.00;;;;10479356;28;74691;-75
2021/01/06 16:58:40;;;;;;;1.63;1.30;;;22.80;21.40;25.80;93325.00;;;;10478825;28;73206;-75
2021/01/06 17:03:48;;;;;;;1.50;1.30;;;22.80;21.40;25.90;93331.00;;;;10479828;28;54384;-76
2021/01/06 17:08:52;;;;;;;1.40;1.30;;;22.80;21.30;25.90;93331.00;;;;10479536;28;47250;-76
2021/01/06 17:14:00;;;;;;;1.60;1.38;;;22.80;21.30;25.90;93327.00;;;;10478858;28;45480;-76
2021/01/06 17:19:11;;;;;;;1.38;1.20;;;22.80;21.30;25.90;93335.00;;;;10479151;28;45479;-75
2021/01/06 17:24:36;;;;;;;1.42;1.20;;;22.80;21.30;25.90;93335.00;;;;10478839;28;45495;-75
2021/01/06 17:29:37;;;;;;;1.50;1.35;;;22.80;21.40;25.80;93334.00;;;;10476997;28;47433;-75
2021/01/06 17:34:37;;;;;;;2.38;1.85;;;22.80;21.30;25.80;93361.00;;;;10478470;28;47009;-75
2021/01/06 17:39:42;;;;;;;3.05;1.70;;;22.80;21.30;25.90;93346.00;;;;10477368;28;75429;-75
2021/01/06 17:44:43;;;;;;;2.63;1.67;;;22.80;21.30;25.80;93364.00;;;;10477878;28;67345;-75
2021/01/06 17:49:44;;;;;;;2.13;1.60;;;22.80;21.30;25.80;93351.00;;;;10477339;28;55027;-77
2021/01/06 17:54:45;;;;;;;1.92;1.70;;;22.80;21.30;25.80;93354.00;;;;10476445;28;75308;-75
2021/01/06 17:59:46;;;;;;;1.52;1.40;;;22.80;21.30;25.80;93366.00;;;;10475850;28;75424;-75
2021/01/06 18:04:47;;;;;;;2.10;1.65;;;22.80;21.30;25.80;93359.00;;;;10476405;28;75618;-75
2021/01/06 18:09:50;;;;;;;1.85;1.40;;;22.80;21.20;25.90;93369.00;;;;10476078;28;75028;-75
2021/01/06 18:14:51;;;;;;;1.52;1.33;;;22.80;21.30;25.80;93377.00;;;;10478027;28;45433;-75
2021/01/06 18:19:52;;;;;;;1.70;1.50;;;22.80;21.20;25.80;93374.00;;;;10476845;28;53941;-75
2021/01/06 18:24:53;;;;;;;1.50;1.30;;;22.80;21.30;25.80;93375.00;;;;10477459;28;47060;-75
2021/01/06 18:29:56;;;;;;;1.63;1.35;;;22.80;21.20;25.80;93375.00;;;;10477936;28;50090;-75
2021/01/06 18:35:15;;;;;;;1.63;1.50;;;22.80;21.30;25.90;93380.00;;;;10477474;28;45537;-75
2021/01/06 18:40:17;;;;;;;2.40;1.65;;;22.80;21.20;25.80;93391.00;;;;10476834;28;45434;-75
2021/01/06 18:45:18;;;;;;;1.73;1.45;;;22.80;21.20;25.80;93391.00;;;;10459908;28;47024;-75
2021/01/06 18:50:28;;;;;;;1.88;1.67;;;22.80;21.20;25.90;93404.00;;;;10475035;28;72390;-75
2021/01/06 18:55:30;;;;;;;2.60;1.90;;;22.80;21.20;25.80;93403.00;;;;10459482;28;47082;-75
2021/01/06 19:00:35;;;;;;;2.17;1.90;;;22.80;21.20;25.80;93410.00;;;;10476034;28;46530;-76
2021/01/06 19:05:49;;;;;;;3.45;2.33;;;22.80;21.20;25.90;93418.00;;;;10476673;28;74116;-76
2021/01/06 19:10:51;;;;;;;2.97;2.40;;;22.80;21.10;25.80;93414.00;;;;10460930;28;48285;-76
2021/01/06 19:15:57;;;;;;;2.55;2.17;;;22.80;21.20;25.90;93396.00;;;;10465911;28;47083;-75
2021/01/06 19:20:59;;;;;;;3.00;2.20;;;22.80;21.20;25.80;93400.00;;;;10481424;28;75272;-75
2021/01/06 19:26:00;;;;;;;2.95;2.28;;;22.80;21.20;25.80;93407.00;;;;10483121;28;45435;-75
2021/01/06 19:31:02;;;;;;;3.08;2.42;;;22.80;21.10;25.80;93417.00;;;;10482470;28;46099;-75
2021/01/06 19:36:12;;;;;;;3.55;2.65;;;22.80;21.10;25.80;93422.00;;;;10465707;28;47103;-75
2021/01/06 19:41:17;;;;;;;3.30;2.50;;;22.80;21.10;25.90;93426.00;;;;10482405;28;45321;-75
2021/01/06 19:46:41;;;;;;;3.95;2.67;;;22.80;21.10;25.90;93418.00;;;;10482356;28;47223;-75
2021/01/06 19:51:51;;;;;;;4.10;2.72;;;22.80;21.20;25.80;93417.00;;;;10488868;22;47034;-72
2021/01/06 19:56:52;;;;;;;3.90;2.28;;;22.80;21.10;25.80;93411.00;;;;10485280;28;54479;-72
2021/01/06 20:01:52;;;;;;;3.50;2.40;;;22.80;21.10;25.80;93407.00;;;;10484834;28;47164;-72
2021/01/06 20:06:53;;;;;;;3.22;2.10;;;22.80;21.10;25.80;93417.00;;;;10483597;28;73986;-72
2021/01/06 20:11:54;;;;;;;3.03;2.40;;;22.80;21.10;25.80;93422.00;;;;10483944;28;74243;-72
2021/01/06 20:16:54;;;;;;;4.13;2.88;;;22.80;21.10;25.80;93423.00;;;;10483706;28;75554;-73
2021/01/06 20:21:55;;;;;;;3.25;2.33;;;22.80;21.10;25.80;93419.00;;;;10482909;28;73793;-73
2021/01/06 20:26:56;;;;;;;3.47;2.40;;;22.80;21.10;25.80;93418.00;;;;10499865;28;74330;-74
2021/01/06 20:31:57;;;;;;;3.15;2.25;;;22.80;21.10;25.80;93432.00;;;;10483441;28;48152;-73
2021/01/06 20:36:58;;;;;;;3.00;2.40;;;22.80;21.10;25.80;93415.00;;;;10484039;28;47019;-72
2021/01/06 20:41:59;;;;;;;3.05;2.40;;;22.80;21.10;25.80;93429.00;;;;10482845;28;48239;-72
2021/01/06 20:47:00;;;;;;;2.90;2.10;;;22.80;21.10;25.80;93420.00;;;;10484324;28;47118;-72
2021/01/06 20:52:00;;;;;;;2.83;2.13;;;22.80;21.10;25.80;93414.00;;;;10482525;28;53624;-73
2021/01/06 20:57:01;;;;;;;2.90;2.20;;;22.80;21.10;25.80;93411.00;;;;10482046;28;74412;-73
2021/01/06 21:02:02;;;;;;;2.83;2.17;;;22.70;21.10;25.80;93424.00;;;;10482077;28;46995;-73
2021/01/06 21:07:03;;;;;;;3.03;2.13;;;22.80;21.10;25.80;93426.00;;;;10480506;28;74617;-72
2021/01/06 21:12:04;;;;;;;4.20;2.17;;;22.80;21.10;25.80;93434.00;;;;10482165;28;47192;-73
2021/01/06 21:17:05;;;;;;;2.80;2.30;;;22.80;21.10;25.80;93429.00;;;;10480202;28;53137;-72
2021/01/06 21:22:06;;;;;;;2.85;2.20;;;22.80;21.70;25.80;93435.00;;;;10481606;28;47862;-72
2021/01/06 21:27:08;;;;;;;3.22;2.35;;;22.80;21.10;25.80;93439.00;;;;10480883;28;74547;-73
2021/01/06 21:32:08;;;;;;;3.53;2.42;;;22.80;21.10;25.70;93439.00;;;;10481038;28;48344;-72
2021/01/06 21:37:10;;;;;;;3.85;2.63;;;22.70;21.10;25.70;93437.00;;;;10480855;28;75120;-73
2021/01/06 21:42:16;;;;;;;3.78;2.95;;;22.70;21.10;25.70;93437.00;;;;10481799;28;46037;-73
2021/01/06 21:47:17;;;;;;;4.33;2.90;;;22.70;21.10;25.70;93436.00;;;;10479108;28;45335;-74
2021/01/06 21:52:17;;;;;;;4.03;2.70;;;22.70;21.10;25.70;93434.00;;;;10473813;28;47946;-72
2021/01/06 21:57:19;;;;;;;4.68;3.17;;;22.70;21.10;25.70;93439.00;;;;10475917;28;73613;-73
2021/01/06 22:02:20;;;;;;;3.63;2.80;;;22.60;21.00;25.60;93440.00;;;;10477242;28;47510;-73
2021/01/06 22:07:21;;;;;;;4.25;3.13;;;22.60;21.00;25.60;93441.00;;;;10477360;28;74332;-72
2021/01/06 22:12:22;;;;;;;4.50;3.33;;;22.60;21.10;25.60;93444.00;;;;10477066;28;74184;-72
2021/01/06 22:17:22;;;;;;;3.92;2.92;;;22.60;21.10;25.60;93444.00;;;;10477675;28;75305;-72
2021/01/06 22:22:23;;;;;;;4.65;3.15;;;22.60;21.10;25.60;93447.00;;;;10476576;28;75351;-73
2021/01/06 22:27:24;;;;;;;4.22;3.17;;;22.60;21.10;25.60;93451.00;;;;10476371;28;74614;-72
2021/01/06 22:32:24;;;;;;;4.10;3.00;;;22.60;21.10;25.60;93455.00;;;;10477383;28;74712;-73
2021/01/06 22:37:25;;;;;;;3.78;2.58;;;22.60;21.10;25.60;93455.00;;;;10477737;28;64073;-72
2021/01/06 22:42:26;;;;;;;3.95;2.78;;;22.50;21.10;25.60;93455.00;;;;10476499;28;74135;-73
2021/01/06 22:47:26;;;;;;;3.70;2.80;;;22.50;21.10;25.60;93455.00;;;;10477338;28;74612;-73
2021/01/06 22:52:27;;;;;;;4.10;2.85;;;22.50;21.10;25.60;93454.00;;;;10475579;28;73677;-73
2021/01/06 22:57:28;;;;;;;3.78;2.80;;;22.50;21.10;25.60;93456.00;;;;10477630;28;62315;-72
2021/01/06 23:02:30;;;;;;;4.47;3.17;;;22.50;21.10;25.50;93447.00;;;;10476807;28;66116;-73
2021/01/06 23:07:30;;;;;;;4.07;2.92;;;22.50;21.20;25.50;93458.00;;;;10477864;28;47383;-73
2021/01/06 23:12:31;;;;;;;3.53;2.90;;;22.50;21.10;25.50;93455.00;;;;10475662;28;73599;-73
2021/01/06 23:17:32;;;;;;;3.72;2.70;;;22.50;21.10;25.50;93450.00;;;;10477009;28;47404;-74
2021/01/06 23:22:33;;;;;;;3.58;2.70;;;22.50;21.20;25.50;93451.00;;;;10475836;28;73871;-74
2021/01/06 23:27:34;;;;;;;3.78;2.85;;;22.50;21.20;25.50;93447.00;;;;10475743;28;75759;-73
2021/01/06 23:32:35;;;;;;;3.65;2.80;;;22.50;21.20;25.50;93448.00;;;;10475585;28;75102;-73
2021/01/06 23:37:36;;;;;;;4.50;3.20;;;22.50;21.20;25.50;93463.00;;;;10477455;28;47156;-72
2021/01/06 23:42:37;;;;;;;3.83;2.90;;;22.50;21.10;25.50;93459.00;;;;10476201;28;47649;-73
2021/01/06 23:47:37;;;;;;;4.43;3.00;;;22.50;21.20;25.50;93464.00;;;;10476631;28;46520;-73
2021/01/06 23:52:39;;;;;;;3.53;2.67;;;22.50;21.20;25.50;93467.00;;;;10473758;28;75676;-72
2021/01/06 23:57:39;;;;;;;3.97;2.88;;;22.50;21.20;25.50;93477.00;;;;10479450;28;48073;-73
